createdAt,value
2019-03-16T00:00:14.719Z,8.50
2019-03-16T00:02:43.164Z,8.50
2019-03-16T00:05:11.975Z,8.50
2019-03-16T00:07:40.695Z,8.60
2019-03-16T00:10:09.510Z,8.60
2019-03-16T00:12:38.207Z,8.50
2019-03-16T00:15:08.821Z,8.50
2019-03-16T00:17:37.273Z,8.50
2019-03-16T00:20:10.658Z,8.50
2019-03-16T00:22:39.759Z,8.50
2019-03-16T00:25:10.395Z,8.50
2019-03-16T00:27:40.834Z,8.50
2019-03-16T00:30:14.351Z,8.50
2019-03-16T00:32:42.794Z,8.50
2019-03-16T00:35:11.365Z,8.50
2019-03-16T00:37:42.873Z,8.50
2019-03-16T00:40:12.850Z,8.50
2019-03-16T00:42:41.567Z,8.50
2019-03-16T00:45:11.448Z,8.50
2019-03-16T00:47:40.155Z,8.50
2019-03-16T00:50:14.795Z,8.50
2019-03-16T00:52:43.984Z,8.60
2019-03-16T00:55:12.917Z,8.60
2019-03-16T00:57:44.194Z,8.60
2019-03-16T01:00:17.122Z,8.60
2019-03-16T01:02:45.734Z,8.50
2019-03-16T01:05:15.216Z,8.50
2019-03-16T01:07:43.930Z,8.50
2019-03-16T01:10:12.745Z,8.50
2019-03-16T01:12:41.178Z,8.50
2019-03-16T01:15:11.878Z,8.40
2019-03-16T01:17:40.578Z,8.40
2019-03-16T01:20:11.243Z,8.40
2019-03-16T01:22:39.965Z,8.30
2019-03-16T01:25:10.012Z,8.30
2019-03-16T01:27:38.452Z,8.30
2019-03-16T01:30:17.661Z,8.30
2019-03-16T01:32:46.090Z,8.30
2019-03-16T01:35:15.011Z,8.20
2019-03-16T01:37:43.516Z,8.30
2019-03-16T01:40:12.179Z,8.30
2019-03-16T01:42:40.635Z,8.30
2019-03-16T01:45:10.506Z,8.20
2019-03-16T01:47:40.496Z,8.20
2019-03-16T01:50:10.269Z,8.20
2019-03-16T01:52:38.737Z,8.20
2019-03-16T01:55:09.123Z,8.20
2019-03-16T01:57:37.585Z,8.20
2019-03-16T02:00:11.878Z,8.20
2019-03-16T02:02:53.731Z,8.20
2019-03-16T02:05:11.434Z,8.10
2019-03-16T02:07:40.163Z,8.20
2019-03-16T02:10:10.003Z,8.20
2019-03-16T02:12:38.743Z,8.20
2019-03-16T02:15:08.331Z,8.10
2019-03-16T02:17:36.895Z,8.20
2019-03-16T02:20:07.879Z,8.10
2019-03-16T02:22:36.420Z,8.10
2019-03-16T02:25:06.980Z,8.10
2019-03-16T02:27:35.498Z,8.20
2019-03-16T02:30:05.807Z,8.20
2019-03-16T02:32:34.311Z,8.20
2019-03-16T02:35:03.256Z,8.20
2019-03-16T02:37:34.575Z,8.20
2019-03-16T02:40:03.831Z,8.20
2019-03-16T02:42:32.297Z,8.10
2019-03-16T02:45:00.834Z,8.00
2019-03-16T02:47:29.272Z,8.00
2019-03-16T02:49:58.052Z,7.90
2019-03-16T02:52:26.591Z,7.90
2019-03-16T02:54:58.923Z,8.00
2019-03-16T02:57:27.733Z,8.00
2019-03-16T02:59:56.501Z,7.90
2019-03-16T03:02:25.046Z,7.90
2019-03-16T03:04:53.484Z,8.00
2019-03-16T03:07:22.058Z,8.00
2019-03-16T03:09:50.755Z,8.00
2019-03-16T03:12:19.301Z,8.00
2019-03-16T03:14:47.749Z,8.00
2019-03-16T03:17:16.225Z,8.00
2019-03-16T03:19:44.838Z,8.00
2019-03-16T03:22:13.363Z,8.00
2019-03-16T03:24:44.242Z,8.10
2019-03-16T03:27:13.188Z,8.20
2019-03-16T03:29:41.740Z,8.20
2019-03-16T03:32:10.489Z,8.20
2019-03-16T03:34:39.017Z,8.20
2019-03-16T03:37:07.643Z,8.20
2019-03-16T03:39:36.096Z,8.20
2019-03-16T03:42:07.572Z,8.20
2019-03-16T03:44:36.303Z,8.20
2019-03-16T03:47:04.811Z,8.20
2019-03-16T03:49:33.572Z,8.20
2019-03-16T03:52:02.024Z,8.20
2019-03-16T03:54:30.857Z,8.20
2019-03-16T03:57:02.408Z,8.30
2019-03-16T03:59:31.001Z,8.30
2019-03-16T04:01:59.791Z,8.20
2019-03-16T04:04:28.536Z,8.30
2019-03-16T04:06:57.095Z,8.30
2019-03-16T04:09:25.652Z,8.30
2019-03-16T04:11:54.447Z,8.30
2019-03-16T04:14:23.275Z,8.30
2019-03-16T04:16:51.730Z,8.30
2019-03-16T04:19:20.177Z,8.30
2019-03-16T04:21:48.718Z,8.30
2019-03-16T04:24:17.152Z,8.30
2019-03-16T04:26:45.640Z,8.40
2019-03-16T04:29:14.222Z,8.30
2019-03-16T04:31:42.777Z,8.30
2019-03-16T04:34:11.514Z,8.30
2019-03-16T04:36:39.973Z,8.40
2019-03-16T04:39:08.410Z,8.40
2019-03-16T04:41:36.894Z,8.40
2019-03-16T04:44:05.329Z,8.40
2019-03-16T04:46:33.870Z,8.40
2019-03-16T04:49:02.751Z,8.40
2019-03-16T04:51:31.205Z,8.40
2019-03-16T04:53:59.737Z,8.30
2019-03-16T04:56:28.453Z,8.30
2019-03-16T04:58:56.921Z,8.40
2019-03-16T05:01:25.426Z,8.40
2019-03-16T05:03:54.174Z,8.40
2019-03-16T05:06:22.964Z,8.30
2019-03-16T05:08:51.447Z,8.40
2019-03-16T05:11:19.902Z,8.30
2019-03-16T05:13:48.362Z,8.30
2019-03-16T05:16:16.857Z,8.30
2019-03-16T05:18:45.415Z,8.30
2019-03-16T05:21:13.869Z,8.30
2019-03-16T05:23:42.311Z,8.30
2019-03-16T05:26:10.772Z,8.30
2019-03-16T05:28:39.220Z,8.30
2019-03-16T05:31:07.700Z,8.30
2019-03-16T05:33:36.132Z,8.20
2019-03-16T05:36:04.678Z,8.20
2019-03-16T05:38:33.205Z,8.30
2019-03-16T05:41:01.752Z,8.20
2019-03-16T05:43:30.202Z,8.20
2019-03-16T05:45:58.734Z,8.30
2019-03-16T05:48:27.653Z,8.20
2019-03-16T05:50:57.464Z,8.20
2019-03-16T05:53:26.138Z,8.30
2019-03-16T05:55:54.843Z,8.30
2019-03-16T05:58:23.312Z,8.30
2019-03-16T06:00:51.867Z,8.30
2019-03-16T06:03:20.401Z,8.40
2019-03-16T06:05:48.843Z,8.40
2019-03-16T06:08:17.706Z,8.40
2019-03-16T06:10:48.848Z,8.40
2019-03-16T06:13:17.396Z,8.40
2019-03-16T06:15:48.606Z,8.40
2019-03-16T06:18:17.501Z,8.30
2019-03-16T06:20:46.212Z,8.30
2019-03-16T06:23:14.677Z,8.40
2019-03-16T06:25:43.123Z,8.40
2019-03-16T06:28:11.863Z,8.40
2019-03-16T06:30:42.269Z,8.40
2019-03-16T06:33:10.715Z,8.40
2019-03-16T06:35:39.177Z,8.40
2019-03-16T06:38:07.622Z,8.50
2019-03-16T06:40:36.430Z,8.50
2019-03-16T06:43:04.874Z,8.50
2019-03-16T06:45:33.612Z,8.60
2019-03-16T06:48:02.049Z,8.60
2019-03-16T06:50:30.533Z,8.70
2019-03-16T06:52:58.975Z,8.70
2019-03-16T06:55:27.444Z,8.70
2019-03-16T06:57:55.883Z,8.70
2019-03-16T07:00:24.339Z,8.80
2019-03-16T07:02:52.855Z,8.70
2019-03-16T07:05:23.609Z,8.80
2019-03-16T07:07:52.479Z,8.80
2019-03-16T07:10:20.936Z,8.80
2019-03-16T07:12:49.374Z,8.80
2019-03-16T07:15:17.822Z,8.90
2019-03-16T07:17:46.646Z,8.90
2019-03-16T07:20:15.832Z,8.90
2019-03-16T07:22:44.658Z,9.00
2019-03-16T07:25:13.203Z,9.00
2019-03-16T07:27:41.738Z,9.00
2019-03-16T07:30:13.268Z,9.00
2019-03-16T07:32:41.840Z,9.00
2019-03-16T07:35:10.499Z,9.10
2019-03-16T07:37:39.225Z,9.20
2019-03-16T07:40:14.540Z,9.30
2019-03-16T07:42:43.266Z,9.40
2019-03-16T07:45:12.851Z,9.40
2019-03-16T07:47:41.624Z,9.40
2019-03-16T07:50:12.088Z,9.40
2019-03-16T07:52:40.567Z,9.40
2019-03-16T07:55:10.048Z,9.40
2019-03-16T07:57:40.535Z,9.40
2019-03-16T08:00:10.921Z,9.50
2019-03-16T08:02:39.649Z,9.60
2019-03-16T08:05:18.152Z,9.60
2019-03-16T08:07:39.959Z,9.60
2019-03-16T08:10:10.826Z,9.70
2019-03-16T08:12:39.337Z,9.60
2019-03-16T08:15:09.507Z,9.70
2019-03-16T08:17:38.308Z,9.70
2019-03-16T08:20:11.753Z,9.70
2019-03-16T08:22:40.194Z,9.80
2019-03-16T08:25:09.094Z,9.90
2019-03-16T08:27:37.550Z,9.90
2019-03-16T08:30:08.793Z,9.90
2019-03-16T08:32:37.237Z,9.90
2019-03-16T08:35:06.403Z,10.00
2019-03-16T08:37:35.220Z,10.10
2019-03-16T08:40:05.420Z,10.10
2019-03-16T08:42:34.031Z,10.20
2019-03-16T08:45:02.849Z,10.30
2019-03-16T08:47:31.732Z,10.30
2019-03-16T08:50:00.441Z,10.30
2019-03-16T08:52:28.944Z,10.20
2019-03-16T08:54:57.991Z,10.00
2019-03-16T08:57:26.542Z,10.00
2019-03-16T09:00:16.223Z,10.00
2019-03-16T09:02:44.850Z,10.00
2019-03-16T09:05:13.648Z,10.10
2019-03-16T09:07:42.203Z,10.10
2019-03-16T09:10:11.028Z,10.10
2019-03-16T09:12:39.858Z,10.10
2019-03-16T09:15:15.495Z,10.30
2019-03-16T09:17:44.011Z,11.20
2019-03-16T09:20:12.605Z,13.80
2019-03-16T09:22:41.352Z,15.70
2019-03-16T09:25:10.658Z,16.10
2019-03-16T09:27:39.182Z,16.40
2019-03-16T09:30:16.122Z,14.70
2019-03-16T09:32:44.888Z,12.90
2019-03-16T09:35:13.560Z,11.50
2019-03-16T09:37:42.358Z,11.00
2019-03-16T09:40:11.299Z,11.00
2019-03-16T09:42:39.845Z,11.80
2019-03-16T09:45:10.625Z,11.70
2019-03-16T09:47:40.187Z,11.40
2019-03-16T09:50:12.028Z,11.10
2019-03-16T09:52:40.471Z,11.20
2019-03-16T09:55:27.728Z,11.70
2019-03-16T09:57:56.175Z,11.50
2019-03-16T10:00:24.829Z,11.10
2019-03-16T10:02:53.568Z,10.70
2019-03-16T10:05:22.033Z,10.60
2019-03-16T10:07:50.476Z,10.50
2019-03-16T10:10:19.225Z,10.50
2019-03-16T10:12:47.776Z,10.30
2019-03-16T10:15:16.699Z,10.30
2019-03-16T10:17:45.524Z,10.30
2019-03-16T10:20:14.663Z,10.40
2019-03-16T10:22:43.514Z,10.50
2019-03-16T10:25:12.046Z,10.60
2019-03-16T10:27:40.860Z,10.60
2019-03-16T10:30:13.553Z,10.50
2019-03-16T10:32:42.028Z,10.50
2019-03-16T10:35:10.605Z,10.40
2019-03-16T10:37:39.082Z,10.40
2019-03-16T10:40:12.749Z,10.40
2019-03-16T10:42:41.369Z,10.50
2019-03-16T10:45:21.992Z,10.60
2019-03-16T10:47:50.546Z,10.50
2019-03-16T10:50:19.000Z,10.60
2019-03-16T10:52:47.770Z,10.60
2019-03-16T10:55:16.487Z,10.70
2019-03-16T10:57:45.248Z,10.90
2019-03-16T11:00:17.368Z,11.10
2019-03-16T11:02:45.836Z,11.30
2019-03-16T11:05:14.433Z,11.40
2019-03-16T11:07:42.875Z,11.30
2019-03-16T11:10:12.302Z,11.10
2019-03-16T11:12:40.739Z,11.20
2019-03-16T11:15:11.030Z,11.30
2019-03-16T11:17:39.592Z,11.30
2019-03-16T11:20:13.064Z,11.40
2019-03-16T11:22:41.534Z,11.30
2019-03-16T11:25:10.139Z,11.40
2019-03-16T11:27:38.579Z,11.60
2019-03-16T11:30:24.678Z,11.60
2019-03-16T11:32:53.218Z,11.50
2019-03-16T11:35:21.868Z,11.40
2019-03-16T11:37:50.392Z,11.40
2019-03-16T11:40:19.403Z,11.60
2019-03-16T11:42:47.944Z,11.60
2019-03-16T11:45:17.339Z,11.70
2019-03-16T11:47:46.160Z,11.60
2019-03-16T11:50:14.864Z,11.80
2019-03-16T11:52:43.495Z,12.10
2019-03-16T11:55:11.953Z,12.20
2019-03-16T11:57:41.359Z,12.40
2019-03-16T12:00:12.476Z,12.80
2019-03-16T12:02:41.098Z,12.80
2019-03-16T12:05:11.466Z,12.70
2019-03-16T12:07:39.946Z,12.60
2019-03-16T12:10:13.163Z,12.50
2019-03-16T12:12:41.637Z,12.40
2019-03-16T12:15:11.613Z,12.60
2019-03-16T12:17:40.072Z,13.10
2019-03-16T12:20:14.148Z,13.50
2019-03-16T12:22:42.625Z,13.60
2019-03-16T12:25:11.484Z,13.80
2019-03-16T12:27:39.936Z,13.60
2019-03-16T12:30:10.653Z,13.40
2019-03-16T12:32:39.159Z,13.40
2019-03-16T12:35:08.687Z,13.40
2019-03-16T12:37:37.207Z,13.50
2019-03-16T12:40:11.335Z,13.70
2019-03-16T12:42:39.780Z,14.00
2019-03-16T12:45:20.785Z,14.20
2019-03-16T12:47:49.630Z,14.30
2019-03-16T12:50:18.160Z,14.30
2019-03-16T12:52:46.678Z,14.70
2019-03-16T12:55:15.433Z,14.70
2019-03-16T12:57:43.952Z,14.80
2019-03-16T13:00:17.261Z,15.10
2019-03-16T13:02:45.766Z,15.50
2019-03-16T13:05:14.226Z,15.50
2019-03-16T13:07:42.694Z,15.50
2019-03-16T13:10:13.545Z,15.40
2019-03-16T13:12:42.363Z,15.40
2019-03-16T13:15:11.884Z,15.10
2019-03-16T13:17:40.529Z,15.10
2019-03-16T13:20:11.816Z,15.20
2019-03-16T13:22:40.282Z,15.20
2019-03-16T13:25:10.524Z,15.20
2019-03-16T13:27:39.348Z,15.30
2019-03-16T13:30:11.170Z,15.50
2019-03-16T13:32:39.645Z,15.50
2019-03-16T13:35:09.036Z,15.80
2019-03-16T13:37:37.818Z,16.30
2019-03-16T13:40:09.368Z,16.50
2019-03-16T13:42:37.830Z,16.60
2019-03-16T13:45:08.114Z,16.40
2019-03-16T13:47:36.664Z,16.50
2019-03-16T13:50:19.518Z,16.80
2019-03-16T13:52:48.638Z,17.60
2019-03-16T13:55:17.153Z,18.10
2019-03-16T13:57:45.648Z,18.70
2019-03-16T14:00:17.100Z,19.70
2019-03-16T14:02:45.589Z,20.00
2019-03-16T14:05:14.284Z,20.40
2019-03-16T14:07:43.101Z,21.50
2019-03-16T14:10:32.142Z,21.70
2019-03-16T14:13:00.589Z,22.00
2019-03-16T14:15:30.203Z,22.80
2019-03-16T14:17:58.804Z,22.70
2019-03-16T14:20:27.531Z,22.90
2019-03-16T14:22:56.272Z,22.90
2019-03-16T14:25:25.087Z,22.00
2019-03-16T14:27:53.691Z,21.70
2019-03-16T14:30:39.421Z,21.50
2019-03-16T14:32:52.651Z,21.60
2019-03-16T14:35:21.175Z,21.90
2019-03-16T14:37:49.711Z,21.70
2019-03-16T14:40:18.539Z,21.20
2019-03-16T14:42:47.063Z,20.80
2019-03-16T14:45:16.437Z,20.00
2019-03-16T14:47:44.996Z,19.30
2019-03-16T14:50:16.766Z,18.70
2019-03-16T14:52:45.442Z,18.50
2019-03-16T14:55:14.335Z,18.10
2019-03-16T14:57:43.192Z,17.70
2019-03-16T15:00:21.116Z,17.60
2019-03-16T15:02:49.872Z,17.30
2019-03-16T15:05:18.407Z,17.20
2019-03-16T15:07:49.874Z,16.80
2019-03-16T15:10:17.954Z,16.50
2019-03-16T15:12:46.697Z,16.30
2019-03-16T15:15:19.117Z,16.30
2019-03-16T15:17:47.688Z,16.30
2019-03-16T15:20:16.335Z,16.40
2019-03-16T15:22:44.784Z,16.80
2019-03-16T15:25:14.192Z,17.00
2019-03-16T15:27:42.704Z,16.90
2019-03-16T15:30:21.864Z,16.70
2019-03-16T15:32:50.357Z,16.60
2019-03-16T15:35:20.491Z,16.20
2019-03-16T15:37:49.021Z,16.30
2019-03-16T15:40:17.545Z,16.30
2019-03-16T15:42:46.003Z,16.60
2019-03-16T15:45:17.536Z,16.90
2019-03-16T15:47:46.059Z,17.10
2019-03-16T15:50:15.592Z,17.20
2019-03-16T15:52:44.067Z,17.00
2019-03-16T15:55:16.279Z,16.80
2019-03-16T15:57:45.146Z,17.80
2019-03-16T16:00:15.437Z,17.80
2019-03-16T16:02:43.912Z,17.20
2019-03-16T16:05:12.848Z,17.00
2019-03-16T16:07:41.336Z,17.00
2019-03-16T16:10:15.209Z,16.90
2019-03-16T16:12:43.664Z,16.60
2019-03-16T16:15:21.717Z,16.30
2019-03-16T16:17:50.178Z,16.10
2019-03-16T16:20:19.461Z,15.60
2019-03-16T16:22:48.275Z,15.20
2019-03-16T16:25:16.722Z,14.90
2019-03-16T16:27:48.144Z,14.70
2019-03-16T16:30:17.826Z,14.50
2019-03-16T16:32:49.399Z,14.40
2019-03-16T16:35:18.184Z,14.30
2019-03-16T16:37:46.667Z,14.10
2019-03-16T16:40:16.246Z,14.00
2019-03-16T16:42:47.581Z,13.90
2019-03-16T16:45:17.361Z,13.80
2019-03-16T16:47:49.998Z,13.80
2019-03-16T16:50:22.392Z,13.80
2019-03-16T16:52:50.892Z,13.80
2019-03-16T16:55:19.634Z,13.80
2019-03-16T16:57:48.080Z,13.70
2019-03-16T17:00:24.500Z,13.50
2019-03-16T17:02:52.955Z,13.50
2019-03-16T17:05:21.772Z,13.50
2019-03-16T17:07:50.261Z,13.40
2019-03-16T17:10:19.111Z,13.30
2019-03-16T17:12:47.608Z,13.10
2019-03-16T17:15:21.371Z,13.00
2019-03-16T17:17:49.898Z,13.00
2019-03-16T17:20:18.439Z,12.90
2019-03-16T17:22:46.956Z,12.80
2019-03-16T17:25:16.162Z,12.70
2019-03-16T17:27:44.626Z,12.60
2019-03-16T17:30:16.235Z,12.50
2019-03-16T17:32:46.413Z,12.50
2019-03-16T17:35:15.286Z,12.50
2019-03-16T17:37:43.934Z,12.40
2019-03-16T17:40:16.102Z,12.30
2019-03-16T17:42:44.655Z,12.40
2019-03-16T17:45:14.127Z,12.30
2019-03-16T17:47:42.654Z,12.30
2019-03-16T17:50:12.630Z,12.20
2019-03-16T17:52:41.163Z,12.20
2019-03-16T17:55:11.815Z,12.00
2019-03-16T17:57:45.427Z,11.90
2019-03-16T18:00:16.383Z,11.90
2019-03-16T18:02:51.300Z,11.80
2019-03-16T18:05:15.336Z,11.80
2019-03-16T18:07:43.969Z,11.80
2019-03-16T18:10:13.718Z,11.80
2019-03-16T18:12:42.257Z,11.80
2019-03-16T18:15:14.908Z,11.80
2019-03-16T18:17:43.400Z,11.80
2019-03-16T18:20:17.061Z,11.70
2019-03-16T18:22:44.351Z,11.70
2019-03-16T18:25:13.641Z,11.60
2019-03-16T18:27:42.140Z,11.60
2019-03-16T18:30:29.016Z,11.50
2019-03-16T18:32:57.511Z,11.50
2019-03-16T18:35:26.055Z,11.50
2019-03-16T18:37:57.406Z,11.40
2019-03-16T18:40:25.866Z,11.30
2019-03-16T18:42:54.381Z,11.30
2019-03-16T18:45:33.585Z,11.20
2019-03-16T18:48:02.035Z,11.20
2019-03-16T18:50:30.521Z,11.10
2019-03-16T18:52:59.294Z,11.00
2019-03-16T18:55:27.777Z,11.00
2019-03-16T18:57:56.498Z,10.80
2019-03-16T19:00:25.115Z,10.80
2019-03-16T19:02:53.553Z,10.70
2019-03-16T19:05:22.335Z,10.70
2019-03-16T19:07:50.821Z,10.60
2019-03-16T19:10:19.568Z,10.50
2019-03-16T19:12:48.034Z,10.50
2019-03-16T19:15:17.646Z,10.40
2019-03-16T19:17:58.284Z,10.40
2019-03-16T19:20:17.135Z,10.40
2019-03-16T19:22:45.754Z,10.40
2019-03-16T19:25:15.918Z,10.30
2019-03-16T19:27:44.400Z,10.40
2019-03-16T19:30:17.447Z,10.40
2019-03-16T19:32:46.108Z,10.40
2019-03-16T19:35:14.721Z,10.40
2019-03-16T19:37:43.463Z,10.40
2019-03-16T19:40:17.936Z,10.40
2019-03-16T19:42:47.287Z,10.40
2019-03-16T19:45:16.571Z,10.40
2019-03-16T19:47:45.406Z,10.40
2019-03-16T19:50:16.332Z,10.40
2019-03-16T19:52:44.941Z,10.40
2019-03-16T19:55:14.410Z,10.40
2019-03-16T19:57:43.017Z,10.30
2019-03-16T20:00:16.784Z,10.30
2019-03-16T20:02:51.171Z,10.30
2019-03-16T20:05:15.509Z,10.20
2019-03-16T20:07:43.954Z,10.20
2019-03-16T20:10:17.054Z,10.20
2019-03-16T20:12:45.685Z,10.20
2019-03-16T20:15:15.385Z,10.10
2019-03-16T20:17:43.997Z,10.10
2019-03-16T20:20:14.018Z,10.10
2019-03-16T20:22:42.541Z,10.00
2019-03-16T20:25:11.634Z,10.00
2019-03-16T20:27:40.145Z,10.00
2019-03-16T20:30:14.674Z,9.90
2019-03-16T20:32:43.190Z,9.90
2019-03-16T20:35:11.972Z,9.90
2019-03-16T20:37:40.481Z,9.80
2019-03-16T20:40:11.735Z,9.80
2019-03-16T20:42:40.184Z,9.80
2019-03-16T20:45:09.925Z,9.70
2019-03-16T20:47:38.445Z,9.70
2019-03-16T20:50:12.842Z,9.60
2019-03-16T20:52:41.312Z,9.70
2019-03-16T20:55:10.188Z,9.60
2019-03-16T20:57:38.735Z,9.50
2019-03-16T21:00:13.419Z,9.50
2019-03-16T21:02:42.049Z,9.40
2019-03-16T21:05:11.167Z,9.30
2019-03-16T21:07:39.838Z,9.30
2019-03-16T21:10:10.023Z,9.30
2019-03-16T21:12:39.018Z,9.30
2019-03-16T21:15:12.313Z,9.20
2019-03-16T21:17:40.825Z,9.10
2019-03-16T21:20:17.196Z,9.00
2019-03-16T21:22:45.790Z,9.00
2019-03-16T21:25:15.271Z,9.00
2019-03-16T21:27:43.822Z,8.90
2019-03-16T21:30:16.658Z,8.80
2019-03-16T21:32:45.189Z,8.80
2019-03-16T21:35:13.727Z,8.70
2019-03-16T21:37:42.185Z,8.60
2019-03-16T21:40:12.548Z,8.60
2019-03-16T21:42:41.171Z,8.60
2019-03-16T21:45:11.085Z,8.60
2019-03-16T21:47:39.835Z,8.60
2019-03-16T21:50:16.253Z,8.60
2019-03-16T21:52:45.109Z,8.60
2019-03-16T21:55:14.721Z,8.60
2019-03-16T21:57:43.250Z,8.50
2019-03-16T22:00:13.907Z,8.40
2019-03-16T22:02:42.352Z,8.30
2019-03-16T22:05:10.929Z,8.20
2019-03-16T22:07:39.369Z,8.10
2019-03-16T22:10:12.840Z,8.00
2019-03-16T22:12:41.653Z,7.90
2019-03-16T22:15:11.836Z,7.90
2019-03-16T22:17:40.303Z,7.90
2019-03-16T22:20:11.450Z,7.80
2019-03-16T22:22:40.012Z,7.90
2019-03-16T22:25:10.808Z,7.80
2019-03-16T22:27:39.439Z,7.80
2019-03-16T22:30:11.242Z,7.70
2019-03-16T22:32:39.872Z,7.70
2019-03-16T22:35:09.188Z,7.60
2019-03-16T22:37:37.921Z,7.40
2019-03-16T22:40:14.633Z,7.30
2019-03-16T22:42:43.180Z,7.10
2019-03-16T22:45:12.896Z,6.90
2019-03-16T22:47:42.226Z,6.70
2019-03-16T22:50:18.774Z,6.80
2019-03-16T22:52:47.362Z,6.90
2019-03-16T22:55:16.582Z,7.20
2019-03-16T22:57:48.726Z,7.50
2019-03-16T23:00:31.954Z,7.80
2019-03-16T23:03:00.704Z,8.10
2019-03-16T23:05:29.159Z,8.20
2019-03-16T23:07:57.604Z,8.30
2019-03-16T23:10:26.484Z,8.30
2019-03-16T23:12:55.209Z,8.40
2019-03-16T23:15:24.680Z,8.40
2019-03-16T23:17:53.202Z,8.30
2019-03-16T23:20:21.664Z,8.30
2019-03-16T23:22:50.226Z,8.20
2019-03-16T23:25:19.029Z,8.10
2019-03-16T23:27:47.580Z,8.00
2019-03-16T23:30:16.178Z,8.00
2019-03-16T23:32:44.638Z,8.10
2019-03-16T23:35:13.120Z,8.10
2019-03-16T23:37:41.565Z,8.10
2019-03-16T23:40:12.042Z,8.10
2019-03-16T23:42:40.516Z,8.10
2019-03-16T23:45:13.208Z,8.10
2019-03-16T23:47:41.918Z,8.30
2019-03-16T23:50:14.385Z,8.30
2019-03-16T23:52:42.860Z,8.30
2019-03-16T23:55:12.041Z,8.40
2019-03-16T23:57:40.617Z,8.40
